KBMC

Details ICAO KBMC (BMC)
Name Brigham City
Region United States
Timezone America/Denver (UTC-7.0)
Plans Departing 6
Arriving 3
Stats Elevation 4,229 ft / 1,289 m (AMSL)
Location 41.552394° -112.062217°
Runways 1
Magnetic Variation 11.605° E
Sunrise 2017-12-11 14:46:28 UTC / 2017-12-11 07:46:28 Local
Sunset 2017-12-11 23:59:44 UTC / 2017-12-11 16:59:44 Local
Advertisement - Login to hide

Runways

ID Width Length Bearing (true) Bearing (mag) Surface Threshold Offset Overrun Length
16 98 ft / 30 m 7,511 ft / 2,289 m 179.50° 167.89° Asphalt 0 ft / 0 m 0 ft / 0 m
34 98 ft / 30 m 7,511 ft / 2,289 m 359.50° 347.89° Asphalt 0 ft / 0 m 0 ft / 0 m

Map

Weather


0- 5 10 15 20 25 30 35+ Temperature / ° C

Clouds and Precipitation
Forecast for 2017-12-11 12:00 UTC. Updated 33 minutes ago

Ground ~20,000 ft ~40,000 ft Winds

METAR

KBMC 111135Z AUTO 00000KT 7SM CLR M08/M10 A3061 RMK AO1 T10781101

TAF

Not found

Frequencies

Recorded 135.07 MHz AWOS 3
Clearance 126.00 MHz CLNC DEL
Unicom 123.05 MHz CTAF/UNICOM
Approach 121.10 MHz APP/DEP
Warning: Do not use this data for real-world aviation or navigation. No guarantee of current accuracy is given.